sensor_id;sensor_type;location;lat;lon;timestamp;P1;durP1;ratioP1;P2;durP2;ratioP2
77051;SDS011;65980;44.898;8.602;2023-07-22T00:02:37;8.38;;;4.68;;
77051;SDS011;65980;44.898;8.602;2023-07-22T00:05:42;8.00;;;4.53;;
77051;SDS011;65980;44.898;8.602;2023-07-22T00:08:47;7.75;;;4.88;;
77051;SDS011;65980;44.898;8.602;2023-07-22T00:11:51;9.27;;;4.60;;
77051;SDS011;65980;44.898;8.602;2023-07-22T00:14:55;10.95;;;4.75;;
77051;SDS011;65980;44.898;8.602;2023-07-22T00:17:59;7.70;;;4.22;;
77051;SDS011;65980;44.898;8.602;2023-07-22T00:21:04;10.30;;;4.47;;
77051;SDS011;65980;44.898;8.602;2023-07-22T00:24:08;8.00;;;4.63;;
77051;SDS011;65980;44.898;8.602;2023-07-22T00:27:12;8.20;;;4.47;;
77051;SDS011;65980;44.898;8.602;2023-07-22T00:30:18;7.40;;;4.22;;
77051;SDS011;65980;44.898;8.602;2023-07-22T00:33:22;7.85;;;4.32;;
77051;SDS011;65980;44.898;8.602;2023-07-22T00:36:27;9.13;;;4.38;;
77051;SDS011;65980;44.898;8.602;2023-07-22T00:39:32;10.20;;;5.47;;
77051;SDS011;65980;44.898;8.602;2023-07-22T00:42:36;8.35;;;4.78;;
77051;SDS011;65980;44.898;8.602;2023-07-22T00:45:40;9.18;;;5.40;;
77051;SDS011;65980;44.898;8.602;2023-07-22T00:48:44;10.07;;;4.78;;
77051;SDS011;65980;44.898;8.602;2023-07-22T00:51:49;8.55;;;5.70;;
77051;SDS011;65980;44.898;8.602;2023-07-22T00:54:53;11.52;;;5.90;;
77051;SDS011;65980;44.898;8.602;2023-07-22T00:57:59;14.02;;;5.57;;
77051;SDS011;65980;44.898;8.602;2023-07-22T01:01:04;9.40;;;5.50;;
77051;SDS011;65980;44.898;8.602;2023-07-22T01:04:08;12.85;;;5.55;;
77051;SDS011;65980;44.898;8.602;2023-07-22T01:07:13;9.73;;;5.63;;
77051;SDS011;65980;44.898;8.602;2023-07-22T01:10:19;11.68;;;5.32;;
77051;SDS011;65980;44.898;8.602;2023-07-22T01:13:25;10.05;;;5.88;;
77051;SDS011;65980;44.898;8.602;2023-07-22T01:16:29;6.70;;;5.10;;
77051;SDS011;65980;44.898;8.602;2023-07-22T01:19:35;9.32;;;5.68;;
77051;SDS011;65980;44.898;8.602;2023-07-22T01:22:40;8.35;;;5.35;;
77051;SDS011;65980;44.898;8.602;2023-07-22T01:25:47;7.97;;;4.78;;
77051;SDS011;65980;44.898;8.602;2023-07-22T01:29:01;8.63;;;5.25;;
77051;SDS011;65980;44.898;8.602;2023-07-22T01:32:06;9.98;;;5.70;;
77051;SDS011;65980;44.898;8.602;2023-07-22T01:35:11;10.98;;;5.85;;
77051;SDS011;65980;44.898;8.602;2023-07-22T01:38:16;10.02;;;5.78;;
77051;SDS011;65980;44.898;8.602;2023-07-22T01:41:21;9.85;;;5.55;;
77051;SDS011;65980;44.898;8.602;2023-07-22T01:44:25;10.57;;;6.10;;
77051;SDS011;65980;44.898;8.602;2023-07-22T01:47:29;8.25;;;5.47;;
77051;SDS011;65980;44.898;8.602;2023-07-22T01:50:34;12.80;;;6.32;;
77051;SDS011;65980;44.898;8.602;2023-07-22T01:53:39;12.65;;;6.75;;
77051;SDS011;65980;44.898;8.602;2023-07-22T01:56:44;13.27;;;7.43;;
77051;SDS011;65980;44.898;8.602;2023-07-22T01:59:49;10.60;;;6.70;;
77051;SDS011;65980;44.898;8.602;2023-07-22T02:02:54;11.68;;;6.45;;
77051;SDS011;65980;44.898;8.602;2023-07-22T02:06:04;13.48;;;7.30;;
77051;SDS011;65980;44.898;8.602;2023-07-22T02:09:09;12.95;;;6.88;;
77051;SDS011;65980;44.898;8.602;2023-07-22T02:12:13;10.13;;;6.30;;
77051;SDS011;65980;44.898;8.602;2023-07-22T02:15:18;11.27;;;6.93;;
77051;SDS011;65980;44.898;8.602;2023-07-22T02:18:23;11.75;;;6.30;;
77051;SDS011;65980;44.898;8.602;2023-07-22T02:21:28;11.50;;;6.40;;
77051;SDS011;65980;44.898;8.602;2023-07-22T02:24:33;9.68;;;6.10;;
77051;SDS011;65980;44.898;8.602;2023-07-22T02:27:37;13.05;;;6.15;;
77051;SDS011;65980;44.898;8.602;2023-07-22T02:30:43;12.43;;;6.55;;
77051;SDS011;65980;44.898;8.602;2023-07-22T02:33:48;11.23;;;6.30;;
77051;SDS011;65980;44.898;8.602;2023-07-22T02:36:53;14.75;;;7.75;;
77051;SDS011;65980;44.898;8.602;2023-07-22T02:39:57;11.07;;;6.90;;
77051;SDS011;65980;44.898;8.602;2023-07-22T02:43:02;11.38;;;7.80;;
77051;SDS011;65980;44.898;8.602;2023-07-22T02:46:07;14.57;;;9.07;;
77051;SDS011;65980;44.898;8.602;2023-07-22T02:49:12;15.20;;;8.48;;
77051;SDS011;65980;44.898;8.602;2023-07-22T02:52:16;16.92;;;8.95;;
77051;SDS011;65980;44.898;8.602;2023-07-22T02:55:22;13.30;;;8.60;;
77051;SDS011;65980;44.898;8.602;2023-07-22T02:58:27;13.38;;;8.52;;
77051;SDS011;65980;44.898;8.602;2023-07-22T03:01:31;13.57;;;9.07;;
77051;SDS011;65980;44.898;8.602;2023-07-22T03:04:35;12.93;;;8.52;;
77051;SDS011;65980;44.898;8.602;2023-07-22T03:07:40;16.33;;;8.07;;
77051;SDS011;65980;44.898;8.602;2023-07-22T03:10:44;18.55;;;9.73;;
77051;SDS011;65980;44.898;8.602;2023-07-22T03:13:52;14.20;;;9.18;;
77051;SDS011;65980;44.898;8.602;2023-07-22T03:16:57;17.13;;;9.60;;
77051;SDS011;65980;44.898;8.602;2023-07-22T03:20:02;17.00;;;9.60;;
77051;SDS011;65980;44.898;8.602;2023-07-22T03:23:14;21.33;;;9.65;;
77051;SDS011;65980;44.898;8.602;2023-07-22T03:26:19;13.68;;;8.80;;
77051;SDS011;65980;44.898;8.602;2023-07-22T03:29:23;12.98;;;8.20;;
77051;SDS011;65980;44.898;8.602;2023-07-22T03:32:27;13.13;;;8.68;;
77051;SDS011;65980;44.898;8.602;2023-07-22T03:35:33;15.07;;;9.73;;
77051;SDS011;65980;44.898;8.602;2023-07-22T03:38:38;14.63;;;8.80;;
77051;SDS011;65980;44.898;8.602;2023-07-22T03:41:42;14.07;;;8.82;;
77051;SDS011;65980;44.898;8.602;2023-07-22T03:44:46;14.48;;;8.75;;
77051;SDS011;65980;44.898;8.602;2023-07-22T03:47:57;11.25;;;7.90;;
77051;SDS011;65980;44.898;8.602;2023-07-22T03:51:04;19.58;;;9.32;;
77051;SDS011;65980;44.898;8.602;2023-07-22T03:54:08;11.93;;;8.50;;
77051;SDS011;65980;44.898;8.602;2023-07-22T03:57:14;15.15;;;9.77;;
77051;SDS011;65980;44.898;8.602;2023-07-22T04:00:20;18.92;;;10.40;;
77051;SDS011;65980;44.898;8.602;2023-07-22T04:03:25;16.70;;;9.55;;
77051;SDS011;65980;44.898;8.602;2023-07-22T04:06:31;18.75;;;10.38;;
77051;SDS011;65980;44.898;8.602;2023-07-22T04:09:35;17.15;;;10.00;;
77051;SDS011;65980;44.898;8.602;2023-07-22T04:12:40;14.20;;;10.82;;
77051;SDS011;65980;44.898;8.602;2023-07-22T04:15:45;15.35;;;10.77;;
77051;SDS011;65980;44.898;8.602;2023-07-22T04:18:50;17.58;;;11.27;;
77051;SDS011;65980;44.898;8.602;2023-07-22T04:21:55;22.05;;;11.27;;
77051;SDS011;65980;44.898;8.602;2023-07-22T04:24:59;15.93;;;11.57;;
77051;SDS011;65980;44.898;8.602;2023-07-22T04:28:05;20.25;;;11.80;;
77051;SDS011;65980;44.898;8.602;2023-07-22T04:31:10;18.85;;;11.80;;
77051;SDS011;65980;44.898;8.602;2023-07-22T04:34:15;21.30;;;11.95;;
77051;SDS011;65980;44.898;8.602;2023-07-22T04:37:18;17.98;;;12.00;;
77051;SDS011;65980;44.898;8.602;2023-07-22T04:40:23;16.52;;;11.25;;
77051;SDS011;65980;44.898;8.602;2023-07-22T04:43:29;17.08;;;11.57;;
77051;SDS011;65980;44.898;8.602;2023-07-22T04:46:34;17.42;;;12.55;;
77051;SDS011;65980;44.898;8.602;2023-07-22T04:49:39;19.52;;;12.50;;
77051;SDS011;65980;44.898;8.602;2023-07-22T04:52:47;18.67;;;11.38;;
77051;SDS011;65980;44.898;8.602;2023-07-22T04:55:52;16.08;;;11.35;;
77051;SDS011;65980;44.898;8.602;2023-07-22T04:58:59;20.27;;;11.73;;
77051;SDS011;65980;44.898;8.602;2023-07-22T05:02:04;28.20;;;13.50;;
77051;SDS011;65980;44.898;8.602;2023-07-22T05:05:08;22.65;;;12.25;;
77051;SDS011;65980;44.898;8.602;2023-07-22T05:08:13;19.40;;;12.48;;
77051;SDS011;65980;44.898;8.602;2023-07-22T05:11:18;22.20;;;12.73;;
77051;SDS011;65980;44.898;8.602;2023-07-22T05:14:23;20.70;;;13.52;;
77051;SDS011;65980;44.898;8.602;2023-07-22T05:17:28;24.95;;;13.18;;
77051;SDS011;65980;44.898;8.602;2023-07-22T05:20:33;18.02;;;12.60;;
77051;SDS011;65980;44.898;8.602;2023-07-22T05:23:37;17.48;;;12.38;;
77051;SDS011;65980;44.898;8.602;2023-07-22T05:26:41;17.65;;;11.02;;
77051;SDS011;65980;44.898;8.602;2023-07-22T05:29:45;19.77;;;12.20;;
77051;SDS011;65980;44.898;8.602;2023-07-22T05:32:53;18.15;;;10.88;;
77051;SDS011;65980;44.898;8.602;2023-07-22T05:35:56;19.85;;;10.95;;
77051;SDS011;65980;44.898;8.602;2023-07-22T05:39:06;15.50;;;10.80;;
77051;SDS011;65980;44.898;8.602;2023-07-22T05:42:18;22.10;;;11.05;;
77051;SDS011;65980;44.898;8.602;2023-07-22T05:45:23;19.85;;;10.57;;
77051;SDS011;65980;44.898;8.602;2023-07-22T05:48:26;25.42;;;10.70;;
77051;SDS011;65980;44.898;8.602;2023-07-22T05:51:31;17.67;;;10.85;;
77051;SDS011;65980;44.898;8.602;2023-07-22T05:54:35;16.23;;;10.25;;
77051;SDS011;65980;44.898;8.602;2023-07-22T05:57:39;14.63;;;10.15;;
77051;SDS011;65980;44.898;8.602;2023-07-22T06:00:43;14.20;;;9.85;;
77051;SDS011;65980;44.898;8.602;2023-07-22T06:03:48;18.40;;;10.32;;
77051;SDS011;65980;44.898;8.602;2023-07-22T06:06:55;17.38;;;10.15;;
77051;SDS011;65980;44.898;8.602;2023-07-22T06:09:59;14.93;;;10.32;;
77051;SDS011;65980;44.898;8.602;2023-07-22T06:13:04;18.30;;;11.15;;
77051;SDS011;65980;44.898;8.602;2023-07-22T06:16:09;24.50;;;10.57;;
77051;SDS011;65980;44.898;8.602;2023-07-22T06:19:14;18.75;;;11.40;;
77051;SDS011;65980;44.898;8.602;2023-07-22T06:22:19;19.25;;;11.65;;
77051;SDS011;65980;44.898;8.602;2023-07-22T06:25:24;14.98;;;10.05;;
77051;SDS011;65980;44.898;8.602;2023-07-22T06:28:29;18.40;;;11.85;;
77051;SDS011;65980;44.898;8.602;2023-07-22T06:31:35;19.25;;;10.60;;
77051;SDS011;65980;44.898;8.602;2023-07-22T06:34:40;17.67;;;10.70;;
77051;SDS011;65980;44.898;8.602;2023-07-22T06:37:45;15.73;;;10.73;;
77051;SDS011;65980;44.898;8.602;2023-07-22T06:40:52;18.25;;;9.88;;
77051;SDS011;65980;44.898;8.602;2023-07-22T06:43:57;17.35;;;10.65;;
77051;SDS011;65980;44.898;8.602;2023-07-22T06:47:00;20.27;;;11.63;;
77051;SDS011;65980;44.898;8.602;2023-07-22T06:50:05;18.98;;;11.73;;
77051;SDS011;65980;44.898;8.602;2023-07-22T06:53:10;16.80;;;11.43;;
77051;SDS011;65980;44.898;8.602;2023-07-22T06:56:15;22.95;;;11.57;;
77051;SDS011;65980;44.898;8.602;2023-07-22T06:59:20;17.35;;;11.18;;
77051;SDS011;65980;44.898;8.602;2023-07-22T07:02:26;20.90;;;12.05;;
77051;SDS011;65980;44.898;8.602;2023-07-22T07:05:31;20.25;;;13.10;;
77051;SDS011;65980;44.898;8.602;2023-07-22T07:08:35;19.25;;;11.80;;
77051;SDS011;65980;44.898;8.602;2023-07-22T07:11:41;16.67;;;10.40;;
77051;SDS011;65980;44.898;8.602;2023-07-22T07:14:46;16.95;;;10.48;;
77051;SDS011;65980;44.898;8.602;2023-07-22T07:17:54;21.52;;;11.02;;
77051;SDS011;65980;44.898;8.602;2023-07-22T07:20:57;13.88;;;10.00;;
77051;SDS011;65980;44.898;8.602;2023-07-22T07:24:02;18.05;;;11.23;;
77051;SDS011;65980;44.898;8.602;2023-07-22T07:27:07;16.92;;;10.40;;
77051;SDS011;65980;44.898;8.602;2023-07-22T07:30:11;23.17;;;11.55;;
77051;SDS011;65980;44.898;8.602;2023-07-22T07:33:17;14.95;;;10.35;;
77051;SDS011;65980;44.898;8.602;2023-07-22T07:36:23;14.02;;;9.05;;
77051;SDS011;65980;44.898;8.602;2023-07-22T07:39:26;18.10;;;9.98;;
77051;SDS011;65980;44.898;8.602;2023-07-22T07:42:31;15.65;;;9.45;;
77051;SDS011;65980;44.898;8.602;2023-07-22T07:45:39;20.15;;;10.23;;
77051;SDS011;65980;44.898;8.602;2023-07-22T07:49:02;14.50;;;9.80;;
77051;SDS011;65980;44.898;8.602;2023-07-22T07:55:13;15.60;;;9.02;;
77051;SDS011;65980;44.898;8.602;2023-07-22T07:58:17;14.13;;;8.73;;
77051;SDS011;65980;44.898;8.602;2023-07-22T08:01:21;14.48;;;8.40;;
77051;SDS011;65980;44.898;8.602;2023-07-22T08:04:26;20.00;;;9.07;;
77051;SDS011;65980;44.898;8.602;2023-07-22T08:07:31;13.75;;;7.72;;
77051;SDS011;65980;44.898;8.602;2023-07-22T08:10:34;13.18;;;8.52;;
77051;SDS011;65980;44.898;8.602;2023-07-22T08:13:39;15.38;;;8.00;;
77051;SDS011;65980;44.898;8.602;2023-07-22T08:16:44;15.80;;;8.32;;
77051;SDS011;65980;44.898;8.602;2023-07-22T08:19:48;16.17;;;8.50;;
77051;SDS011;65980;44.898;8.602;2023-07-22T08:22:52;12.15;;;7.72;;
77051;SDS011;65980;44.898;8.602;2023-07-22T08:25:57;15.13;;;7.75;;
77051;SDS011;65980;44.898;8.602;2023-07-22T08:29:02;16.70;;;8.25;;
77051;SDS011;65980;44.898;8.602;2023-07-22T08:32:06;11.27;;;7.50;;
77051;SDS011;65980;44.898;8.602;2023-07-22T08:35:11;11.90;;;7.60;;
77051;SDS011;65980;44.898;8.602;2023-07-22T08:38:14;9.52;;;6.68;;
77051;SDS011;65980;44.898;8.602;2023-07-22T08:41:18;12.55;;;7.32;;
77051;SDS011;65980;44.898;8.602;2023-07-22T08:44:23;10.95;;;7.03;;
77051;SDS011;65980;44.898;8.602;2023-07-22T08:47:34;14.38;;;7.95;;
77051;SDS011;65980;44.898;8.602;2023-07-22T08:50:42;14.55;;;7.85;;
77051;SDS011;65980;44.898;8.602;2023-07-22T08:53:50;14.18;;;8.07;;
77051;SDS011;65980;44.898;8.602;2023-07-22T08:56:56;10.48;;;6.32;;
77051;SDS011;65980;44.898;8.602;2023-07-22T09:00:01;11.70;;;7.20;;
77051;SDS011;65980;44.898;8.602;2023-07-22T09:03:10;12.30;;;6.70;;
77051;SDS011;65980;44.898;8.602;2023-07-22T09:06:15;11.43;;;5.95;;
77051;SDS011;65980;44.898;8.602;2023-07-22T09:09:20;13.48;;;6.90;;
77051;SDS011;65980;44.898;8.602;2023-07-22T09:12:26;14.18;;;6.10;;
77051;SDS011;65980;44.898;8.602;2023-07-22T09:15:31;10.65;;;6.20;;
77051;SDS011;65980;44.898;8.602;2023-07-22T09:18:42;15.13;;;6.15;;
77051;SDS011;65980;44.898;8.602;2023-07-22T09:21:50;12.82;;;6.45;;
77051;SDS011;65980;44.898;8.602;2023-07-22T09:25:12;16.05;;;7.22;;
77051;SDS011;65980;44.898;8.602;2023-07-22T09:28:33;10.75;;;4.90;;
77051;SDS011;65980;44.898;8.602;2023-07-22T09:32:01;8.30;;;5.70;;
77051;SDS011;65980;44.898;8.602;2023-07-22T09:35:14;15.07;;;5.47;;
77051;SDS011;65980;44.898;8.602;2023-07-22T09:38:26;9.77;;;6.25;;
77051;SDS011;65980;44.898;8.602;2023-07-22T09:41:30;9.00;;;4.88;;
77051;SDS011;65980;44.898;8.602;2023-07-22T09:44:34;9.40;;;5.05;;
77051;SDS011;65980;44.898;8.602;2023-07-22T09:47:41;11.57;;;5.60;;
77051;SDS011;65980;44.898;8.602;2023-07-22T09:50:56;12.10;;;5.65;;
77051;SDS011;65980;44.898;8.602;2023-07-22T09:54:01;10.23;;;5.82;;
77051;SDS011;65980;44.898;8.602;2023-07-22T09:57:07;15.93;;;6.28;;
77051;SDS011;65980;44.898;8.602;2023-07-22T10:00:11;10.13;;;5.57;;
77051;SDS011;65980;44.898;8.602;2023-07-22T10:03:18;10.27;;;5.80;;
77051;SDS011;65980;44.898;8.602;2023-07-22T10:06:28;8.52;;;4.78;;
77051;SDS011;65980;44.898;8.602;2023-07-22T10:09:34;9.32;;;5.13;;
77051;SDS011;65980;44.898;8.602;2023-07-22T10:12:59;9.48;;;6.20;;
77051;SDS011;65980;44.898;8.602;2023-07-22T10:16:15;13.55;;;5.20;;
77051;SDS011;65980;44.898;8.602;2023-07-22T10:19:25;8.80;;;5.32;;
77051;SDS011;65980;44.898;8.602;2023-07-22T10:22:30;14.93;;;6.50;;
77051;SDS011;65980;44.898;8.602;2023-07-22T10:25:37;9.70;;;5.45;;
77051;SDS011;65980;44.898;8.602;2023-07-22T10:28:50;12.75;;;6.35;;
77051;SDS011;65980;44.898;8.602;2023-07-22T10:31:55;9.85;;;4.88;;
77051;SDS011;65980;44.898;8.602;2023-07-22T10:35:02;9.35;;;4.50;;
77051;SDS011;65980;44.898;8.602;2023-07-22T10:41:19;12.98;;;5.43;;
77051;SDS011;65980;44.898;8.602;2023-07-22T10:44:26;7.82;;;5.10;;
77051;SDS011;65980;44.898;8.602;2023-07-22T10:47:38;9.77;;;4.80;;
77051;SDS011;65980;44.898;8.602;2023-07-22T10:50:52;11.23;;;4.95;;
77051;SDS011;65980;44.898;8.602;2023-07-22T10:54:12;11.70;;;5.60;;
77051;SDS011;65980;44.898;8.602;2023-07-22T11:00:22;13.43;;;5.60;;
77051;SDS011;65980;44.898;8.602;2023-07-22T11:03:26;12.25;;;5.53;;
77051;SDS011;65980;44.898;8.602;2023-07-22T11:06:32;11.23;;;5.40;;
77051;SDS011;65980;44.898;8.602;2023-07-22T11:09:37;7.93;;;5.00;;
77051;SDS011;65980;44.898;8.602;2023-07-22T11:12:43;7.38;;;5.00;;
77051;SDS011;65980;44.898;8.602;2023-07-22T11:15:50;8.95;;;5.22;;
77051;SDS011;65980;44.898;8.602;2023-07-22T11:19:04;14.27;;;5.82;;
77051;SDS011;65980;44.898;8.602;2023-07-22T11:22:25;10.05;;;6.18;;
77051;SDS011;65980;44.898;8.602;2023-07-22T11:25:33;8.60;;;5.65;;
77051;SDS011;65980;44.898;8.602;2023-07-22T11:28:48;13.07;;;6.50;;
77051;SDS011;65980;44.898;8.602;2023-07-22T11:32:29;13.95;;;6.35;;
77051;SDS011;65980;44.898;8.602;2023-07-22T11:35:46;8.93;;;5.40;;
77051;SDS011;65980;44.898;8.602;2023-07-22T11:38:53;10.95;;;6.32;;
77051;SDS011;65980;44.898;8.602;2023-07-22T11:42:02;11.75;;;7.07;;
77051;SDS011;65980;44.898;8.602;2023-07-22T11:45:07;10.32;;;5.22;;
77051;SDS011;65980;44.898;8.602;2023-07-22T11:48:12;10.55;;;5.55;;
77051;SDS011;65980;44.898;8.602;2023-07-22T11:51:18;11.25;;;4.90;;
77051;SDS011;65980;44.898;8.602;2023-07-22T11:54:23;7.95;;;5.10;;
77051;SDS011;65980;44.898;8.602;2023-07-22T11:57:32;12.00;;;6.15;;
77051;SDS011;65980;44.898;8.602;2023-07-22T12:00:42;15.13;;;6.18;;
77051;SDS011;65980;44.898;8.602;2023-07-22T12:03:47;9.20;;;5.00;;
77051;SDS011;65980;44.898;8.602;2023-07-22T12:06:52;11.50;;;5.53;;
77051;SDS011;65980;44.898;8.602;2023-07-22T12:09:58;7.75;;;5.43;;
77051;SDS011;65980;44.898;8.602;2023-07-22T12:13:03;8.13;;;5.03;;
77051;SDS011;65980;44.898;8.602;2023-07-22T12:16:07;7.97;;;5.57;;
77051;SDS011;65980;44.898;8.602;2023-07-22T12:19:12;10.52;;;5.57;;
77051;SDS011;65980;44.898;8.602;2023-07-22T12:22:17;10.23;;;5.05;;
77051;SDS011;65980;44.898;8.602;2023-07-22T12:25:21;13.40;;;5.63;;
77051;SDS011;65980;44.898;8.602;2023-07-22T12:28:31;9.60;;;5.70;;
77051;SDS011;65980;44.898;8.602;2023-07-22T12:31:41;8.30;;;4.63;;
77051;SDS011;65980;44.898;8.602;2023-07-22T12:34:52;11.55;;;5.07;;
77051;SDS011;65980;44.898;8.602;2023-07-22T12:39:08;10.70;;;5.00;;
77051;SDS011;65980;44.898;8.602;2023-07-22T12:42:17;6.47;;;5.00;;
77051;SDS011;65980;44.898;8.602;2023-07-22T12:45:22;7.05;;;5.18;;
77051;SDS011;65980;44.898;8.602;2023-07-22T12:48:26;12.05;;;5.18;;
77051;SDS011;65980;44.898;8.602;2023-07-22T12:51:30;8.07;;;4.80;;
77051;SDS011;65980;44.898;8.602;2023-07-22T12:54:35;7.80;;;4.50;;
77051;SDS011;65980;44.898;8.602;2023-07-22T13:01:05;11.75;;;4.60;;
77051;SDS011;65980;44.898;8.602;2023-07-22T13:04:09;10.88;;;5.30;;
77051;SDS011;65980;44.898;8.602;2023-07-22T13:07:13;9.23;;;4.95;;
77051;SDS011;65980;44.898;8.602;2023-07-22T13:10:17;8.88;;;5.40;;
77051;SDS011;65980;44.898;8.602;2023-07-22T13:13:23;8.98;;;5.53;;
77051;SDS011;65980;44.898;8.602;2023-07-22T13:16:27;7.53;;;4.85;;
77051;SDS011;65980;44.898;8.602;2023-07-22T13:19:31;7.75;;;4.70;;
77051;SDS011;65980;44.898;8.602;2023-07-22T13:22:36;7.90;;;4.63;;
77051;SDS011;65980;44.898;8.602;2023-07-22T13:25:41;10.82;;;4.70;;
77051;SDS011;65980;44.898;8.602;2023-07-22T13:28:46;10.88;;;5.10;;
77051;SDS011;65980;44.898;8.602;2023-07-22T13:31:50;9.50;;;4.75;;
77051;SDS011;65980;44.898;8.602;2023-07-22T13:34:54;8.40;;;4.97;;
77051;SDS011;65980;44.898;8.602;2023-07-22T13:37:58;8.55;;;5.30;;
77051;SDS011;65980;44.898;8.602;2023-07-22T13:41:06;7.97;;;5.10;;
77051;SDS011;65980;44.898;8.602;2023-07-22T13:44:11;10.32;;;5.55;;
77051;SDS011;65980;44.898;8.602;2023-07-22T13:47:15;9.20;;;5.45;;
77051;SDS011;65980;44.898;8.602;2023-07-22T13:50:20;10.50;;;4.90;;
77051;SDS011;65980;44.898;8.602;2023-07-22T13:53:25;9.15;;;5.70;;
77051;SDS011;65980;44.898;8.602;2023-07-22T13:56:29;11.38;;;5.35;;
77051;SDS011;65980;44.898;8.602;2023-07-22T13:59:34;7.82;;;5.43;;
77051;SDS011;65980;44.898;8.602;2023-07-22T14:02:38;8.80;;;5.30;;
77051;SDS011;65980;44.898;8.602;2023-07-22T14:05:43;9.32;;;5.45;;
77051;SDS011;65980;44.898;8.602;2023-07-22T14:08:48;9.18;;;5.00;;
77051;SDS011;65980;44.898;8.602;2023-07-22T14:11:52;8.13;;;4.90;;
77051;SDS011;65980;44.898;8.602;2023-07-22T14:15:05;13.70;;;5.15;;
77051;SDS011;65980;44.898;8.602;2023-07-22T14:18:10;9.40;;;5.13;;
77051;SDS011;65980;44.898;8.602;2023-07-22T14:21:14;10.80;;;5.45;;
77051;SDS011;65980;44.898;8.602;2023-07-22T14:24:20;9.88;;;5.03;;
77051;SDS011;65980;44.898;8.602;2023-07-22T14:27:24;11.52;;;5.05;;
77051;SDS011;65980;44.898;8.602;2023-07-22T14:30:31;10.75;;;5.32;;
77051;SDS011;65980;44.898;8.602;2023-07-22T14:33:36;8.68;;;5.10;;
77051;SDS011;65980;44.898;8.602;2023-07-22T14:36:40;8.93;;;5.25;;
77051;SDS011;65980;44.898;8.602;2023-07-22T14:39:49;14.55;;;5.45;;
77051;SDS011;65980;44.898;8.602;2023-07-22T14:42:53;11.13;;;5.18;;
77051;SDS011;65980;44.898;8.602;2023-07-22T14:45:58;9.55;;;5.15;;
77051;SDS011;65980;44.898;8.602;2023-07-22T14:49:03;11.38;;;4.90;;
77051;SDS011;65980;44.898;8.602;2023-07-22T14:52:07;17.13;;;5.57;;
77051;SDS011;65980;44.898;8.602;2023-07-22T14:55:11;11.80;;;5.20;;
77051;SDS011;65980;44.898;8.602;2023-07-22T14:58:15;17.73;;;5.63;;
77051;SDS011;65980;44.898;8.602;2023-07-22T15:01:22;13.32;;;5.47;;
77051;SDS011;65980;44.898;8.602;2023-07-22T15:04:26;11.95;;;5.43;;
77051;SDS011;65980;44.898;8.602;2023-07-22T15:07:30;11.60;;;5.07;;
77051;SDS011;65980;44.898;8.602;2023-07-22T15:10:35;11.98;;;5.30;;
77051;SDS011;65980;44.898;8.602;2023-07-22T15:13:40;14.77;;;6.13;;
77051;SDS011;65980;44.898;8.602;2023-07-22T15:16:44;19.05;;;6.03;;
77051;SDS011;65980;44.898;8.602;2023-07-22T15:19:49;12.73;;;5.32;;
77051;SDS011;65980;44.898;8.602;2023-07-22T15:22:54;16.42;;;5.25;;
77051;SDS011;65980;44.898;8.602;2023-07-22T15:25:59;8.73;;;4.57;;
77051;SDS011;65980;44.898;8.602;2023-07-22T15:29:06;11.57;;;4.93;;
77051;SDS011;65980;44.898;8.602;2023-07-22T15:32:11;13.25;;;5.10;;
77051;SDS011;65980;44.898;8.602;2023-07-22T15:35:16;13.95;;;4.35;;
77051;SDS011;65980;44.898;8.602;2023-07-22T15:38:27;14.85;;;4.82;;
77051;SDS011;65980;44.898;8.602;2023-07-22T15:41:36;13.10;;;3.97;;
77051;SDS011;65980;44.898;8.602;2023-07-22T15:44:41;11.07;;;4.68;;
77051;SDS011;65980;44.898;8.602;2023-07-22T15:47:45;10.18;;;4.57;;
77051;SDS011;65980;44.898;8.602;2023-07-22T15:50:49;8.85;;;3.92;;
77051;SDS011;65980;44.898;8.602;2023-07-22T15:53:53;14.00;;;4.07;;
77051;SDS011;65980;44.898;8.602;2023-07-22T15:56:59;11.88;;;4.32;;
77051;SDS011;65980;44.898;8.602;2023-07-22T16:00:04;9.82;;;4.20;;
77051;SDS011;65980;44.898;8.602;2023-07-22T16:03:14;8.93;;;4.32;;
77051;SDS011;65980;44.898;8.602;2023-07-22T16:06:19;10.77;;;4.18;;
77051;SDS011;65980;44.898;8.602;2023-07-22T16:09:23;12.35;;;4.22;;
77051;SDS011;65980;44.898;8.602;2023-07-22T16:12:28;10.65;;;4.50;;
77051;SDS011;65980;44.898;8.602;2023-07-22T16:15:32;9.70;;;4.20;;
77051;SDS011;65980;44.898;8.602;2023-07-22T16:18:36;10.40;;;4.30;;
77051;SDS011;65980;44.898;8.602;2023-07-22T16:21:41;11.15;;;4.22;;
77051;SDS011;65980;44.898;8.602;2023-07-22T16:24:45;12.40;;;4.13;;
77051;SDS011;65980;44.898;8.602;2023-07-22T16:27:50;10.18;;;4.10;;
77051;SDS011;65980;44.898;8.602;2023-07-22T16:30:54;11.15;;;4.00;;
77051;SDS011;65980;44.898;8.602;2023-07-22T16:33:59;11.20;;;4.53;;
77051;SDS011;65980;44.898;8.602;2023-07-22T16:37:05;9.02;;;3.90;;
77051;SDS011;65980;44.898;8.602;2023-07-22T16:40:11;10.43;;;4.10;;
77051;SDS011;65980;44.898;8.602;2023-07-22T16:43:15;12.50;;;4.28;;
77051;SDS011;65980;44.898;8.602;2023-07-22T16:46:19;11.52;;;4.50;;
77051;SDS011;65980;44.898;8.602;2023-07-22T16:49:28;8.55;;;3.58;;
77051;SDS011;65980;44.898;8.602;2023-07-22T16:52:33;11.75;;;4.28;;
77051;SDS011;65980;44.898;8.602;2023-07-22T16:55:38;8.60;;;3.67;;
77051;SDS011;65980;44.898;8.602;2023-07-22T16:58:42;12.23;;;4.22;;
77051;SDS011;65980;44.898;8.602;2023-07-22T17:01:46;8.57;;;3.95;;
77051;SDS011;65980;44.898;8.602;2023-07-22T17:04:50;8.40;;;3.63;;
77051;SDS011;65980;44.898;8.602;2023-07-22T17:07:55;12.82;;;3.92;;
77051;SDS011;65980;44.898;8.602;2023-07-22T17:11:05;10.48;;;3.70;;
77051;SDS011;65980;44.898;8.602;2023-07-22T17:14:09;7.30;;;3.95;;
77051;SDS011;65980;44.898;8.602;2023-07-22T17:17:13;9.48;;;3.88;;
77051;SDS011;65980;44.898;8.602;2023-07-22T17:20:17;8.63;;;3.55;;
77051;SDS011;65980;44.898;8.602;2023-07-22T17:23:22;9.35;;;3.75;;
77051;SDS011;65980;44.898;8.602;2023-07-22T17:26:26;9.18;;;3.55;;
77051;SDS011;65980;44.898;8.602;2023-07-22T17:29:31;10.77;;;3.85;;
77051;SDS011;65980;44.898;8.602;2023-07-22T17:32:35;7.53;;;3.50;;
77051;SDS011;65980;44.898;8.602;2023-07-22T17:35:40;9.15;;;3.55;;
77051;SDS011;65980;44.898;8.602;2023-07-22T17:38:46;10.77;;;3.80;;
77051;SDS011;65980;44.898;8.602;2023-07-22T17:41:51;6.95;;;3.47;;
77051;SDS011;65980;44.898;8.602;2023-07-22T17:44:55;8.98;;;3.78;;
77051;SDS011;65980;44.898;8.602;2023-07-22T17:47:59;8.70;;;3.83;;
77051;SDS011;65980;44.898;8.602;2023-07-22T17:51:04;7.57;;;3.67;;
77051;SDS011;65980;44.898;8.602;2023-07-22T17:54:08;7.70;;;3.70;;
77051;SDS011;65980;44.898;8.602;2023-07-22T17:57:13;9.10;;;3.60;;
77051;SDS011;65980;44.898;8.602;2023-07-22T18:00:17;8.32;;;3.78;;
77051;SDS011;65980;44.898;8.602;2023-07-22T18:03:24;10.50;;;3.85;;
77051;SDS011;65980;44.898;8.602;2023-07-22T18:06:28;6.07;;;3.35;;
77051;SDS011;65980;44.898;8.602;2023-07-22T18:09:33;9.98;;;3.78;;
77051;SDS011;65980;44.898;8.602;2023-07-22T18:12:39;9.23;;;3.53;;
77051;SDS011;65980;44.898;8.602;2023-07-22T18:15:43;8.07;;;3.60;;
77051;SDS011;65980;44.898;8.602;2023-07-22T18:18:47;6.90;;;3.60;;
77051;SDS011;65980;44.898;8.602;2023-07-22T18:21:52;7.60;;;3.80;;
77051;SDS011;65980;44.898;8.602;2023-07-22T18:24:57;7.50;;;3.50;;
77051;SDS011;65980;44.898;8.602;2023-07-22T18:28:02;8.25;;;3.60;;
77051;SDS011;65980;44.898;8.602;2023-07-22T18:31:07;6.75;;;3.65;;
77051;SDS011;65980;44.898;8.602;2023-07-22T18:34:11;9.32;;;3.88;;
77051;SDS011;65980;44.898;8.602;2023-07-22T18:37:15;5.68;;;3.47;;
77051;SDS011;65980;44.898;8.602;2023-07-22T18:40:20;6.70;;;3.63;;